sensor_id;sensor_type;location;lat;lon;timestamp;pressure;altitude;pressure_sealevel;temperature;humidity
74437;BME280;62868;52.360;30.424;2022-12-28T00:05:00;1026.2;;;4;69.9
74437;BME280;62868;52.360;30.424;2022-12-28T00:10:00;1026.2;;;4;69.9
74437;BME280;62868;52.360;30.424;2022-12-28T00:14:29;1026.2;;;4;69.9
74437;BME280;62868;52.360;30.424;2022-12-28T00:20:09;1026.3;;;4;69.8
74437;BME280;62868;52.360;30.424;2022-12-28T00:24:56;1026.4;;;4;69.8
74437;BME280;62868;52.360;30.424;2022-12-28T00:29:50;1026.3;;;3.9;69.8
74437;BME280;62868;52.360;30.424;2022-12-28T00:34:47;1026.4;;;3.9;69.8
74437;BME280;62868;52.360;30.424;2022-12-28T00:39:45;1026.4;;;4;69.8
74437;BME280;62868;52.360;30.424;2022-12-28T00:45:09;1026.4;;;4;69.7
74437;BME280;62868;52.360;30.424;2022-12-28T00:49:36;1026.4;;;4;69.7
74437;BME280;62868;52.360;30.424;2022-12-28T00:54:34;1026.4;;;4;69.7
74437;BME280;62868;52.360;30.424;2022-12-28T00:59:48;1026.5;;;4;69.7
74437;BME280;62868;52.360;30.424;2022-12-28T01:04:28;1026.5;;;4.1;69.6
74437;BME280;62868;52.360;30.424;2022-12-28T01:10:11;1026.6;;;4.1;69.6
74437;BME280;62868;52.360;30.424;2022-12-28T01:14:59;1026.6;;;4.1;69.6
74437;BME280;62868;52.360;30.424;2022-12-28T01:20:01;1026.6;;;4.1;69.6
74437;BME280;62868;52.360;30.424;2022-12-28T01:24:48;1026.6;;;4.1;69.6
74437;BME280;62868;52.360;30.424;2022-12-28T01:29:45;1026.5;;;4.1;69.6
74437;BME280;62868;52.360;30.424;2022-12-28T01:35:11;1026.5;;;4.1;69.5
74437;BME280;62868;52.360;30.424;2022-12-28T01:39:29;1026.5;;;4.1;69.5
74437;BME280;62868;52.360;30.424;2022-12-28T01:44:38;1026.5;;;4.1;69.5
74437;BME280;62868;52.360;30.424;2022-12-28T01:50:09;1026.6;;;4.1;69.5
74437;BME280;62868;52.360;30.424;2022-12-28T01:54:36;1026.6;;;4.1;69.4
74437;BME280;62868;52.360;30.424;2022-12-28T02:00:11;1026.6;;;4.1;69.4
74437;BME280;62868;52.360;30.424;2022-12-28T02:04:59;1026.6;;;4.1;69.4
74437;BME280;62868;52.360;30.424;2022-12-28T02:10:01;1026.6;;;4.1;69.4
74437;BME280;62868;52.360;30.424;2022-12-28T02:14:49;1026.6;;;4.1;69.4
74437;BME280;62868;52.360;30.424;2022-12-28T02:19:30;1026.6;;;4.1;69.4
74437;BME280;62868;52.360;30.424;2022-12-28T02:25:24;1026.7;;;4.2;69.3
74437;BME280;62868;52.360;30.424;2022-12-28T02:30:03;1026.7;;;4.2;69.3
74437;BME280;62868;52.360;30.424;2022-12-28T02:34:44;1026.8;;;4.2;69.3
74437;BME280;62868;52.360;30.424;2022-12-28T02:40:06;1026.8;;;4.1;69.3
74437;BME280;62868;52.360;30.424;2022-12-28T02:44:29;1026.8;;;4.1;69.3
74437;BME280;62868;52.360;30.424;2022-12-28T02:50:12;1026.9;;;4.1;69.3
74437;BME280;62868;52.360;30.424;2022-12-28T02:55:07;1026.9;;;4.1;69.3
74437;BME280;62868;52.360;30.424;2022-12-28T03:00:03;1026.9;;;4.1;69.3
74437;BME280;62868;52.360;30.424;2022-12-28T03:04:56;1026.9;;;4.1;69.2
74437;BME280;62868;52.360;30.424;2022-12-28T03:09:48;1027;;;4.1;69.3
74437;BME280;62868;52.360;30.424;2022-12-28T03:15:12;1027;;;4.1;69.3
74437;BME280;62868;52.360;30.424;2022-12-28T03:19:40;1027;;;4.1;69.3
74437;BME280;62868;52.360;30.424;2022-12-28T03:24:53;1027.1;;;4.1;69.2
74437;BME280;62868;52.360;30.424;2022-12-28T03:30:06;1027.1;;;4;69.2
74437;BME280;62868;52.360;30.424;2022-12-28T03:35:03;1027.2;;;4;69.2
74437;BME280;62868;52.360;30.424;2022-12-28T03:40:11;1027.2;;;4;69.1
74437;BME280;62868;52.360;30.424;2022-12-28T03:45:03;1027.2;;;4;69.1
74437;BME280;62868;52.360;30.424;2022-12-28T03:50:05;1027.2;;;4;69.1
74437;BME280;62868;52.360;30.424;2022-12-28T03:55:05;1027.3;;;4;69.1
74437;BME280;62868;52.360;30.424;2022-12-28T03:59:49;1027.4;;;4;69.1
74437;BME280;62868;52.360;30.424;2022-12-28T04:05:15;1027.6;;;4;69
74437;BME280;62868;52.360;30.424;2022-12-28T04:09:53;1027.6;;;4;69
74437;BME280;62868;52.360;30.424;2022-12-28T04:14:29;1027.6;;;4;69
74437;BME280;62868;52.360;30.424;2022-12-28T04:20:15;1027.7;;;4;69
74437;BME280;62868;52.360;30.424;2022-12-28T04:24:29;1027.7;;;4;69
74437;BME280;62868;52.360;30.424;2022-12-28T04:30:03;1027.7;;;4;69
74437;BME280;62868;52.360;30.424;2022-12-28T04:35:03;1027.8;;;4;69
74437;BME280;62868;52.360;30.424;2022-12-28T04:39:49;1027.8;;;3.9;69
74437;BME280;62868;52.360;30.424;2022-12-28T04:44:41;1027.9;;;3.9;69
74437;BME280;62868;52.360;30.424;2022-12-28T04:50:11;1027.9;;;3.9;68.9
74437;BME280;62868;52.360;30.424;2022-12-28T04:55:15;1027.8;;;3.8;68.9
74437;BME280;62868;52.360;30.424;2022-12-28T04:59:29;1027.8;;;3.8;68.9
74437;BME280;62868;52.360;30.424;2022-12-28T05:05:05;1027.8;;;3.7;69
74437;BME280;62868;52.360;30.424;2022-12-28T05:10:11;1027.9;;;3.6;69
74437;BME280;62868;52.360;30.424;2022-12-28T05:14:39;1027.9;;;3.6;69
74437;BME280;62868;52.360;30.424;2022-12-28T05:20:01;1028;;;3.7;68.8
74437;BME280;62868;52.360;30.424;2022-12-28T05:25:01;1028;;;3.7;68.7
74437;BME280;62868;52.360;30.424;2022-12-28T05:30:01;1028;;;3.7;68.6
74437;BME280;62868;52.360;30.424;2022-12-28T05:34:51;1028;;;3.8;68.5
74437;BME280;62868;52.360;30.424;2022-12-28T05:40:09;1028.1;;;3.8;68.5
74437;BME280;62868;52.360;30.424;2022-12-28T05:45:09;1028.1;;;3.8;68.4
74437;BME280;62868;52.360;30.424;2022-12-28T05:49:41;1028.1;;;3.8;68.4
74437;BME280;62868;52.360;30.424;2022-12-28T05:54:51;1028.3;;;3.8;68.4
74437;BME280;62868;52.360;30.424;2022-12-28T06:00:11;1028.3;;;3.8;68.4
74437;BME280;62868;52.360;30.424;2022-12-28T06:04:29;1028.3;;;3.8;68.4
74437;BME280;62868;52.360;30.424;2022-12-28T06:10:03;1028.3;;;3.8;68.4
74437;BME280;62868;52.360;30.424;2022-12-28T06:15:01;1028.3;;;3.8;68.4
74437;BME280;62868;52.360;30.424;2022-12-28T06:19:39;1028.3;;;3.8;68.4
74437;BME280;62868;52.360;30.424;2022-12-28T06:24:29;1028.4;;;3.8;68.4
74437;BME280;62868;52.360;30.424;2022-12-28T06:30:09;1028.5;;;3.8;68.3
74437;BME280;62868;52.360;30.424;2022-12-28T06:35:09;1028.5;;;3.8;68.3
74437;BME280;62868;52.360;30.424;2022-12-28T06:39:39;1028.5;;;3.9;68.3
74437;BME280;62868;52.360;30.424;2022-12-28T06:44:51;1028.6;;;3.9;68.3
74437;BME280;62868;52.360;30.424;2022-12-28T06:50:15;1028.7;;;4;68.1
74437;BME280;62868;52.360;30.424;2022-12-28T06:54:39;1028.7;;;4;68.1
74437;BME280;62868;52.360;30.424;2022-12-28T07:00:05;1028.8;;;4.1;68
74437;BME280;62868;52.360;30.424;2022-12-28T07:05:03;1028.9;;;4.2;67.9
74437;BME280;62868;52.360;30.424;2022-12-28T07:09:49;1029;;;4.2;67.9
74437;BME280;62868;52.360;30.424;2022-12-28T07:14:39;1029;;;4.2;67.8
74437;BME280;62868;52.360;30.424;2022-12-28T07:20:11;1029.1;;;4.4;67.5
74437;BME280;62868;52.360;30.424;2022-12-28T07:25:13;1029.1;;;4.4;67.4
74437;BME280;62868;52.360;30.424;2022-12-28T07:29:39;1029.1;;;4.4;67.4
74437;BME280;62868;52.360;30.424;2022-12-28T07:34:53;1029.2;;;4.6;67.2
74437;BME280;62868;52.360;30.424;2022-12-28T07:40:11;1029.2;;;4.8;67
74437;BME280;62868;52.360;30.424;2022-12-28T07:44:39;1029.2;;;4.8;67
74437;BME280;62868;52.360;30.424;2022-12-28T07:50:01;1029.2;;;4.8;66.9
74437;BME280;62868;52.360;30.424;2022-12-28T07:55:03;1029.3;;;4.9;66.8
74437;BME280;62868;52.360;30.424;2022-12-28T07:59:49;1029.4;;;5;66.7
74437;BME280;62868;52.360;30.424;2022-12-28T08:04:29;1029.4;;;5.1;66.6
74437;BME280;62868;52.360;30.424;2022-12-28T08:10:11;1029.3;;;5.3;66.1
74437;BME280;62868;52.360;30.424;2022-12-28T08:15:11;1029.4;;;5.4;66.1
74437;BME280;62868;52.360;30.424;2022-12-28T08:19:29;1029.4;;;5.4;66.1
74437;BME280;62868;52.360;30.424;2022-12-28T08:24:29;1029.4;;;5.5;65.9
74437;BME280;62868;52.360;30.424;2022-12-28T08:30:03;1029.5;;;5.7;65.6
74437;BME280;62868;52.360;30.424;2022-12-28T08:35:01;1029.6;;;5.9;65.2
74437;BME280;62868;52.360;30.424;2022-12-28T08:40:13;1029.6;;;6.1;64.9
74437;BME280;62868;52.360;30.424;2022-12-28T08:45:11;1029.7;;;6.1;64.8
74437;BME280;62868;52.360;30.424;2022-12-28T08:49:39;1029.7;;;6.1;64.8
74437;BME280;62868;52.360;30.424;2022-12-28T08:54:29;1029.7;;;6.1;64.5
74437;BME280;62868;52.360;30.424;2022-12-28T09:00:13;1029.7;;;6.6;63.8
74437;BME280;62868;52.360;30.424;2022-12-28T09:05:03;1029.7;;;6.6;63.8
74437;BME280;62868;52.360;30.424;2022-12-28T09:09:39;1029.8;;;6.7;63.6
74437;BME280;62868;52.360;30.424;2022-12-28T09:14:51;1029.8;;;6.6;63.5
74437;BME280;62868;52.360;30.424;2022-12-28T09:20:03;1029.8;;;6.6;63.3
74437;BME280;62868;52.360;30.424;2022-12-28T09:25:03;1029.8;;;6.6;63.2
74437;BME280;62868;52.360;30.424;2022-12-28T09:30:13;1029.9;;;6.8;62.8
74437;BME280;62868;52.360;30.424;2022-12-28T09:35:11;1029.9;;;6.7;62.9
74437;BME280;62868;52.360;30.424;2022-12-28T09:39:51;1029.9;;;6.7;62.9
74437;BME280;62868;52.360;30.424;2022-12-28T09:44:32;1029.9;;;6.6;62.9
74437;BME280;62868;52.360;30.424;2022-12-28T09:50:23;1029.9;;;6.4;62.8
74437;BME280;62868;52.360;30.424;2022-12-28T09:54:31;1029.9;;;6.4;62.8
74437;BME280;62868;52.360;30.424;2022-12-28T09:59:41;1029.9;;;6.6;62.6
74437;BME280;62868;52.360;30.424;2022-12-28T10:04:49;1029.8;;;6.6;62.5
74437;BME280;62868;52.360;30.424;2022-12-28T10:10:01;1029.9;;;6.5;62.4
74437;BME280;62868;52.360;30.424;2022-12-28T10:15:01;1030;;;6.5;62.3
74437;BME280;62868;52.360;30.424;2022-12-28T10:20:13;1030;;;6.4;62.3
74437;BME280;62868;52.360;30.424;2022-12-28T10:25:11;1030;;;6.2;62.3
74437;BME280;62868;52.360;30.424;2022-12-28T10:29:51;1030;;;6.2;62.3
74437;BME280;62868;52.360;30.424;2022-12-28T10:34:30;1030.1;;;6.3;62.2
74437;BME280;62868;52.360;30.424;2022-12-28T10:40:15;1030.2;;;6.3;62.1
74437;BME280;62868;52.360;30.424;2022-12-28T10:45:02;1030.2;;;6.3;62
74437;BME280;62868;52.360;30.424;2022-12-28T10:49:45;1030.2;;;6.4;61.9
74437;BME280;62868;52.360;30.424;2022-12-28T10:54:39;1030.2;;;6.4;61.8
74437;BME280;62868;52.360;30.424;2022-12-28T11:00:19;1030.3;;;6.4;61.8
74437;BME280;62868;52.360;30.424;2022-12-28T11:05:17;1030.3;;;6.4;61.6
74437;BME280;62868;52.360;30.424;2022-12-28T11:10:12;1030.4;;;6.4;61.7
74437;BME280;62868;52.360;30.424;2022-12-28T11:15:12;1030.5;;;6.3;61.6
74437;BME280;62868;52.360;30.424;2022-12-28T11:19:50;1030.5;;;6.3;61.6
74437;BME280;62868;52.360;30.424;2022-12-28T11:25:03;1030.5;;;6.3;61.4
74437;BME280;62868;52.360;30.424;2022-12-28T11:30:12;1030.5;;;6.1;61.3
74437;BME280;62868;52.360;30.424;2022-12-28T11:35:01;1030.5;;;6.1;61.3
74437;BME280;62868;52.360;30.424;2022-12-28T11:39:41;1030.6;;;6.1;61.2
74437;BME280;62868;52.360;30.424;2022-12-28T11:44:47;1030.6;;;6.1;61.2
74437;BME280;62868;52.360;30.424;2022-12-28T11:51:13;1030.6;;;6.1;61.2
74437;BME280;62868;52.360;30.424;2022-12-28T11:55:03;1030.6;;;6.1;61.1
74437;BME280;62868;52.360;30.424;2022-12-28T12:06:15;1030.7;;;6.3;60.9
74437;BME280;62868;52.360;30.424;2022-12-28T12:09:38;1030.7;;;6.3;60.9
74437;BME280;62868;52.360;30.424;2022-12-28T12:14:30;1030.8;;;6.2;60.9
74437;BME280;62868;52.360;30.424;2022-12-28T12:20:17;1030.9;;;6;61
74437;BME280;62868;52.360;30.424;2022-12-28T12:25:02;1030.9;;;6;61
74437;BME280;62868;52.360;30.424;2022-12-28T12:29:33;1031;;;5.8;61
74437;BME280;62868;52.360;30.424;2022-12-28T12:34:53;1031.1;;;5.6;61.2
74437;BME280;62868;52.360;30.424;2022-12-28T12:40:06;1031.2;;;5.4;61.3
74437;BME280;62868;52.360;30.424;2022-12-28T12:45:15;1031.3;;;5.3;61.3
74437;BME280;62868;52.360;30.424;2022-12-28T12:49:43;1031.3;;;5.3;61.3
74437;BME280;62868;52.360;30.424;2022-12-28T12:54:31;1031.3;;;5.2;61.4
74437;BME280;62868;52.360;30.424;2022-12-28T12:59:55;1031.4;;;5.1;61.6
74437;BME280;62868;52.360;30.424;2022-12-28T13:04:40;1031.4;;;5;61.6
74437;BME280;62868;52.360;30.424;2022-12-28T13:10:12;1031.5;;;4.9;61.7
74437;BME280;62868;52.360;30.424;2022-12-28T13:14:45;1031.5;;;4.9;61.7
74437;BME280;62868;52.360;30.424;2022-12-28T13:19:29;1031.5;;;4.9;61.8
74437;BME280;62868;52.360;30.424;2022-12-28T13:25:01;1031.5;;;4.9;61.9
74437;BME280;62868;52.360;30.424;2022-12-28T13:29:59;1031.5;;;4.8;62
74437;BME280;62868;52.360;30.424;2022-12-28T13:35:15;1031.5;;;4.7;62.1
74437;BME280;62868;52.360;30.424;2022-12-28T13:39:39;1031.5;;;4.7;62.1
74437;BME280;62868;52.360;30.424;2022-12-28T13:44:38;1031.5;;;4.6;62.3
74437;BME280;62868;52.360;30.424;2022-12-28T13:49:52;1031.5;;;4.6;62.3
74437;BME280;62868;52.360;30.424;2022-12-28T13:54:29;1031.5;;;4.5;62.4
74437;BME280;62868;52.360;30.424;2022-12-28T14:00:15;1031.6;;;4.4;62.6
74437;BME280;62868;52.360;30.424;2022-12-28T14:04:49;1031.6;;;4.4;62.6
74437;BME280;62868;52.360;30.424;2022-12-28T14:09:53;1031.5;;;4.4;62.6
74437;BME280;62868;52.360;30.424;2022-12-28T14:15:03;1031.5;;;4.4;62.7
74437;BME280;62868;52.360;30.424;2022-12-28T14:20:01;1031.5;;;4.4;62.8
74437;BME280;62868;52.360;30.424;2022-12-28T14:25:13;1031.6;;;4.3;62.8
74437;BME280;62868;52.360;30.424;2022-12-28T14:29:41;1031.6;;;4.3;62.8
74437;BME280;62868;52.360;30.424;2022-12-28T14:34:54;1031.6;;;4.3;62.8
74437;BME280;62868;52.360;30.424;2022-12-28T14:39:40;1031.6;;;4.3;62.8
74437;BME280;62868;52.360;30.424;2022-12-28T14:44:29;1031.6;;;4.2;62.9
74437;BME280;62868;52.360;30.424;2022-12-28T14:50:16;1031.6;;;4.3;62.9
74437;BME280;62868;52.360;30.424;2022-12-28T14:54:51;1031.6;;;4.3;62.9
74437;BME280;62868;52.360;30.424;2022-12-28T14:59:54;1031.6;;;4.2;62.9
74437;BME280;62868;52.360;30.424;2022-12-28T15:05:31;1031.6;;;4.1;62.9
74437;BME280;62868;52.360;30.424;2022-12-28T15:09:59;1031.6;;;4;63
74437;BME280;62868;52.360;30.424;2022-12-28T15:15:13;1031.6;;;3.7;63.4
74437;BME280;62868;52.360;30.424;2022-12-28T15:20:03;1031.6;;;3.7;63.4
74437;BME280;62868;52.360;30.424;2022-12-28T15:24:49;1031.6;;;3.7;63.4
74437;BME280;62868;52.360;30.424;2022-12-28T15:29:49;1031.6;;;3.7;63.3
74437;BME280;62868;52.360;30.424;2022-12-28T15:34:27;1031.5;;;3.7;63.3
74437;BME280;62868;52.360;30.424;2022-12-28T15:40:13;1031.4;;;3.7;63.2
74437;BME280;62868;52.360;30.424;2022-12-28T15:44:27;1031.4;;;3.7;63.2
74437;BME280;62868;52.360;30.424;2022-12-28T15:49:29;1031.5;;;3.7;63.3
74437;BME280;62868;52.360;30.424;2022-12-28T15:55:03;1031.5;;;3.7;63.2
74437;BME280;62868;52.360;30.424;2022-12-28T16:00:13;1031.5;;;3.6;63.3
74437;BME280;62868;52.360;30.424;2022-12-28T16:05:13;1031.4;;;3.5;63.3
74437;BME280;62868;52.360;30.424;2022-12-28T16:09:51;1031.4;;;3.5;63.3
74437;BME280;62868;52.360;30.424;2022-12-28T16:14:39;1031.4;;;3.6;63.4
74437;BME280;62868;52.360;30.424;2022-12-28T16:19:29;1031.3;;;3.6;63.3
74437;BME280;62868;52.360;30.424;2022-12-28T16:24:59;1031.3;;;3.6;63.4
74437;BME280;62868;52.360;30.424;2022-12-28T16:30:11;1031.3;;;3.6;63.3
74437;BME280;62868;52.360;30.424;2022-12-28T16:34:49;1031.3;;;3.6;63.3
74437;BME280;62868;52.360;30.424;2022-12-28T16:39:39;1031.2;;;3.5;63.4
74437;BME280;62868;52.360;30.424;2022-12-28T16:45:03;1031.2;;;3.5;63.4
74437;BME280;62868;52.360;30.424;2022-12-28T16:50:03;1031.3;;;3.6;63.4
74437;BME280;62868;52.360;30.424;2022-12-28T16:55:13;1031.2;;;3.5;63.5
74437;BME280;62868;52.360;30.424;2022-12-28T16:59:29;1031.2;;;3.5;63.5
74437;BME280;62868;52.360;30.424;2022-12-28T17:05:05;1031.2;;;3.5;63.6
74437;BME280;62868;52.360;30.424;2022-12-28T17:09:49;1031.2;;;3.4;63.6
74437;BME280;62868;52.360;30.424;2022-12-28T17:14:29;1031.2;;;3.3;63.7
74437;BME280;62868;52.360;30.424;2022-12-28T17:20:15;1031.1;;;3.1;63.8
74437;BME280;62868;52.360;30.424;2022-12-28T17:24:49;1031.1;;;3.1;63.8
74437;BME280;62868;52.360;30.424;2022-12-28T17:29:51;1031;;;3;63.9
74437;BME280;62868;52.360;30.424;2022-12-28T17:35:05;1030.9;;;3;64
74437;BME280;62868;52.360;30.424;2022-12-28T17:39:59;1030.9;;;2.9;64
74437;BME280;62868;52.360;30.424;2022-12-28T17:45:13;1030.9;;;2.9;64.2
74437;BME280;62868;52.360;30.424;2022-12-28T17:49:29;1030.9;;;2.9;64.2
74437;BME280;62868;52.360;30.424;2022-12-28T17:55:03;1030.9;;;2.9;64.2
74437;BME280;62868;52.360;30.424;2022-12-28T17:59:51;1031;;;2.9;64.2
74437;BME280;62868;52.360;30.424;2022-12-28T18:04:39;1031;;;2.9;64.3
74437;BME280;62868;52.360;30.424;2022-12-28T18:10:11;1030.9;;;2.8;64.4
74437;BME280;62868;52.360;30.424;2022-12-28T18:14:35;1030.9;;;2.8;64.4
74437;BME280;62868;52.360;30.424;2022-12-28T18:19:39;1030.9;;;2.8;64.5
74437;BME280;62868;52.360;30.424;2022-12-28T18:25:05;1030.9;;;2.7;64.6
74437;BME280;62868;52.360;30.424;2022-12-28T18:30:03;1030.8;;;2.7;64.7
74437;BME280;62868;52.360;30.424;2022-12-28T18:35:15;1030.7;;;2.7;64.8
74437;BME280;62868;52.360;30.424;2022-12-28T18:39:29;1030.7;;;2.7;64.8
74437;BME280;62868;52.360;30.424;2022-12-28T18:45:05;1030.6;;;2.7;64.9
74437;BME280;62868;52.360;30.424;2022-12-28T18:49:49;1030.6;;;2.7;65
74437;BME280;62868;52.360;30.424;2022-12-28T18:54:35;1030.7;;;2.7;65.1
74437;BME280;62868;52.360;30.424;2022-12-28T19:00:11;1030.7;;;2.7;65.2
74437;BME280;62868;52.360;30.424;2022-12-28T19:04:49;1030.7;;;2.7;65.2
74437;BME280;62868;52.360;30.424;2022-12-28T19:09:29;1030.7;;;2.7;65.2
74437;BME280;62868;52.360;30.424;2022-12-28T19:15:03;1030.7;;;2.7;65.3
74437;BME280;62868;52.360;30.424;2022-12-28T19:19:59;1030.7;;;2.7;65.4
74437;BME280;62868;52.360;30.424;2022-12-28T19:25:13;1030.5;;;2.7;65.5
74437;BME280;62868;52.360;30.424;2022-12-28T19:29:41;1030.5;;;2.7;65.5
74437;BME280;62868;52.360;30.424;2022-12-28T19:35:03;1030.5;;;2.8;65.5
74437;BME280;62868;52.360;30.424;2022-12-28T19:39:49;1030.5;;;2.8;65.6
74437;BME280;62868;52.360;30.424;2022-12-28T19:44:39;1030.5;;;2.8;65.6
74437;BME280;62868;52.360;30.424;2022-12-28T19:50:13;1030.4;;;2.9;65.6
74437;BME280;62868;52.360;30.424;2022-12-28T19:54:40;1030.4;;;2.9;65.6
74437;BME280;62868;52.360;30.424;2022-12-28T19:59:51;1030.4;;;2.9;65.7
74437;BME280;62868;52.360;30.424;2022-12-28T20:05:06;1030.4;;;3;65.7
74437;BME280;62868;52.360;30.424;2022-12-28T20:09:59;1030.3;;;3;65.7
74437;BME280;62868;52.360;30.424;2022-12-28T20:15:15;1030.4;;;3;65.8
74437;BME280;62868;52.360;30.424;2022-12-28T20:19:29;1030.4;;;3;65.8
74437;BME280;62868;52.360;30.424;2022-12-28T20:25:03;1030.4;;;3;65.8
74437;BME280;62868;52.360;30.424;2022-12-28T20:29:51;1030.4;;;3;65.8
74437;BME280;62868;52.360;30.424;2022-12-28T20:34:29;1030.3;;;3;65.8
74437;BME280;62868;52.360;30.424;2022-12-28T20:40:13;1030.2;;;3;65.9
74437;BME280;62868;52.360;30.424;2022-12-28T20:44:49;1030.2;;;3;65.9
74437;BME280;62868;52.360;30.424;2022-12-28T20:49:51;1030.2;;;3.1;66
74437;BME280;62868;52.360;30.424;2022-12-28T20:55:03;1030.2;;;3.1;66
74437;BME280;62868;52.360;30.424;2022-12-28T21:00:01;1030.1;;;3.1;66
74437;BME280;62868;52.360;30.424;2022-12-28T21:05:13;1030.2;;;3.1;66
74437;BME280;62868;52.360;30.424;2022-12-28T21:09:29;1030.2;;;3.1;66
74437;BME280;62868;52.360;30.424;2022-12-28T21:15:05;1030.2;;;3.2;66
74437;BME280;62868;52.360;30.424;2022-12-28T21:20:01;1030.2;;;3.2;66
74437;BME280;62868;52.360;30.424;2022-12-28T21:24:29;1030.1;;;3.2;66.1
74437;BME280;62868;52.360;30.424;2022-12-28T21:29:51;1030;;;3.2;66.1
74437;BME280;62868;52.360;30.424;2022-12-28T21:35:01;1030;;;3.2;66.1
74437;BME280;62868;52.360;30.424;2022-12-28T21:40:11;1029.8;;;3.2;66.1
74437;BME280;62868;52.360;30.424;2022-12-28T21:44:39;1029.8;;;3.2;66.1
74437;BME280;62868;52.360;30.424;2022-12-28T21:50:04;1029.8;;;3.3;66.1
74437;BME280;62868;52.360;30.424;2022-12-28T21:55:05;1029.7;;;3.3;66.1
74437;BME280;62868;52.360;30.424;2022-12-28T21:59:29;1029.6;;;3.3;66.2
74437;BME280;62868;52.360;30.424;2022-12-28T22:05:13;1029.5;;;3.4;66.1
74437;BME280;62868;52.360;30.424;2022-12-28T22:10:01;1029.5;;;3.4;66.1
74437;BME280;62868;52.360;30.424;2022-12-28T22:14:39;1029.4;;;3.4;66.1
74437;BME280;62868;52.360;30.424;2022-12-28T22:19:51;1029.4;;;3.5;66.1
74437;BME280;62868;52.360;30.424;2022-12-28T22:24:29;1029.5;;;3.5;66.1
74437;BME280;62868;52.360;30.424;2022-12-28T22:30:15;1029.3;;;3.5;66.1
74437;BME280;62868;52.360;30.424;2022-12-28T22:34:43;1029.3;;;3.5;66.1
74437;BME280;62868;52.360;30.424;2022-12-28T22:40:04;1029.2;;;3.5;66.1
74437;BME280;62868;52.360;30.424;2022-12-28T22:45:03;1029.3;;;3.5;66.1
74437;BME280;62868;52.360;30.424;2022-12-28T22:49:49;1029.3;;;3.6;66
74437;BME280;62868;52.360;30.424;2022-12-28T22:55:09;1029.2;;;3.6;66
74437;BME280;62868;52.360;30.424;2022-12-28T23:00:02;1029.2;;;3.6;66
74437;BME280;62868;52.360;30.424;2022-12-28T23:04:35;1029;;;3.6;66
74437;BME280;62868;52.360;30.424;2022-12-28T23:09:29;1029;;;3.6;66
74437;BME280;62868;52.360;30.424;2022-12-28T23:14:43;1029;;;3.7;65.9
74437;BME280;62868;52.360;30.424;2022-12-28T23:20:08;1029;;;3.7;65.9
74437;BME280;62868;52.360;30.424;2022-12-28T23:24:33;1028.9;;;3.7;65.9
74437;BME280;62868;52.360;30.424;2022-12-28T23:29:59;1028.9;;;3.7;65.9
74437;BME280;62868;52.360;30.424;2022-12-28T23:34:57;1028.9;;;3.7;65.8
74437;BME280;62868;52.360;30.424;2022-12-28T23:39:29;1029;;;3.7;65.8
74437;BME280;62868;52.360;30.424;2022-12-28T23:45:10;1029;;;3.7;65.8
74437;BME280;62868;52.360;30.424;2022-12-28T23:50:07;1028.9;;;3.7;65.8
74437;BME280;62868;52.360;30.424;2022-12-28T23:54:45;1029;;;3.6;65.8
74437;BME280;62868;52.360;30.424;2022-12-28T23:59:45;1029;;;3.7;65.7
